METAR Data
IDs: Format: Raw Decoded Include TAF

Data at: 1820 UTC 16 Oct 2021

ZHHH 161800Z 03003MPS CAVOK 13/11 Q1033 NOSIG